createdAt,value
2018-03-21T00:09:17.026Z,4
2018-03-21T00:19:16.913Z,2
2018-03-21T00:29:16.981Z,2
2018-03-21T00:39:16.968Z,3
2018-03-21T00:49:17.003Z,3
2018-03-21T00:59:16.982Z,2
2018-03-21T01:09:16.917Z,2
2018-03-21T01:19:16.977Z,2
2018-03-21T01:29:16.906Z,3
2018-03-21T01:39:16.981Z,2
2018-03-21T01:49:16.943Z,4
2018-03-21T01:59:17.015Z,3
2018-03-21T02:09:17.017Z,3
2018-03-21T02:19:16.985Z,3
2018-03-21T02:29:16.991Z,3
2018-03-21T02:39:17.069Z,3
2018-03-21T02:49:17.064Z,4
2018-03-21T02:59:17.897Z,4
2018-03-21T03:09:17.072Z,4
2018-03-21T03:19:17.026Z,4
2018-03-21T03:29:17.074Z,5
2018-03-21T03:39:17.051Z,7
2018-03-21T03:49:17.093Z,6
2018-03-21T03:59:17.087Z,5
2018-03-21T04:09:17.146Z,5
2018-03-21T04:19:17.611Z,6
2018-03-21T04:29:17.070Z,7
2018-03-21T04:39:17.121Z,6
2018-03-21T04:49:17.080Z,6
2018-03-21T04:59:17.184Z,8
2018-03-21T05:09:17.129Z,7
2018-03-21T05:19:17.151Z,7
2018-03-21T05:29:17.106Z,8
2018-03-21T05:39:17.210Z,9
2018-03-21T05:49:17.203Z,9
2018-03-21T05:59:17.086Z,10
2018-03-21T06:09:17.201Z,11
2018-03-21T06:19:17.120Z,9
2018-03-21T06:29:17.210Z,9
2018-03-21T06:39:17.236Z,11
2018-03-21T06:49:17.223Z,9
2018-03-21T06:59:17.291Z,10
2018-03-21T07:09:17.353Z,9
2018-03-21T07:19:17.286Z,11
2018-03-21T07:29:17.373Z,10
2018-03-21T07:39:17.306Z,10
2018-03-21T07:49:17.858Z,9
2018-03-21T07:59:17.426Z,10
2018-03-21T08:09:17.264Z,10
2018-03-21T08:19:17.281Z,9
2018-03-21T08:29:17.355Z,10
2018-03-21T08:39:17.407Z,9
